Time;durP1;ratioP1;P1;durP2;ratioP2;P2;SDS_P1;SDS_P2;PMS_P1;PMS_P2;Temp;Humidity;BMP_temperature;BMP_pressure;BME280_temperature;BME280_humidity;BME280_pressure;Samples;Min_cycle;Max_cycle;Signal;HPM_P1;HPM_P2
2021/01/28 00:04:56;;;;;;;54.20;17.55;;;;;;;7.29;84.10;99794.09;8795739;33;20218;-73
2021/01/28 00:09:59;;;;;;;46.47;16.50;;;;;;;7.32;84.34;99795.72;8795746;33;20226;-72
2021/01/28 00:15:01;;;;;;;49.92;19.40;;;;;;;7.25;84.06;99792.59;8795488;33;20296;-72
2021/01/28 00:20:12;;;;;;;51.70;16.83;;;;;;;7.35;84.24;99783.09;8795939;33;20627;-72
2021/01/28 00:25:17;;;;;;;41.58;15.65;;;;;;;7.28;84.43;99772.94;8795439;33;20263;-72
2021/01/28 00:30:23;;;;;;;48.70;15.07;;;;;;;7.35;84.31;99772.47;8798021;33;20624;-71
2021/01/28 00:35:32;;;;;;;42.27;13.10;;;;;;;7.38;84.02;99781.19;8795063;33;20603;-71
2021/01/28 00:40:34;;;;;;;45.08;14.80;;;;;;;7.36;83.52;99765.34;8795578;33;20273;-71
2021/01/28 00:45:37;;;;;;;43.13;14.35;;;;;;;7.44;82.97;99762.22;8793598;33;20254;-72
2021/01/28 00:50:42;;;;;;;39.13;12.43;;;;;;;7.33;83.43;99761.09;8798936;33;20741;-72
2021/01/28 00:55:46;;;;;;;40.85;13.30;;;;;;;7.29;83.99;99746.28;8794588;33;20736;-71
2021/01/28 01:01:10;;;;;;;46.70;15.03;;;;;;;7.35;83.96;99751.22;8794202;33;20225;-71
2021/01/28 01:06:13;;;;;;;49.05;15.27;;;;;;;7.53;83.12;99743.00;8794233;33;20234;-72
2021/01/28 01:11:16;;;;;;;50.42;15.35;;;;;;;7.46;83.54;99749.66;8793379;33;20226;-72
2021/01/28 01:16:23;;;;;;;45.55;12.75;;;;;;;7.33;83.98;99744.28;8792864;33;21416;-71
2021/01/28 01:21:43;;;;;;;41.38;14.38;;;;;;;7.13;84.68;99740.25;8792308;33;20276;-72
2021/01/28 01:26:52;;;;;;;24.80;9.97;;;;;;;7.03;85.30;99734.66;8793989;33;20306;-72
2021/01/28 01:31:56;;;;;;;18.95;8.13;;;;;;;7.25;84.33;99731.50;8792975;33;20289;-71
2021/01/28 01:37:02;;;;;;;27.48;8.75;;;;;;;7.28;83.99;99728.63;8792945;33;20266;-72
2021/01/28 01:42:06;;;;;;;46.40;14.33;;;;;;;7.31;83.73;99714.31;8792862;33;20242;-72
2021/01/28 01:47:28;;;;;;;41.83;14.02;;;;;;;7.37;83.83;99710.41;8793841;33;20266;-72
2021/01/28 01:52:35;;;;;;;46.63;15.05;;;;;;;7.42;83.56;99698.50;8792442;33;21554;-72
2021/01/28 01:57:40;;;;;;;40.13;13.02;;;;;;;7.24;84.39;99699.69;8791990;33;21456;-72
2021/01/28 02:02:55;;;;;;;43.65;15.88;;;;;;;7.42;83.95;99695.00;8792522;33;20744;-72
2021/01/28 02:08:18;;;;;;;40.92;13.30;;;;;;;7.54;83.58;99695.06;8793167;33;21515;-72
2021/01/28 02:13:51;;;;;;;38.10;12.57;;;;;;;7.62;83.21;99672.44;8766141;33;20251;-71
2021/01/28 02:19:40;;;;;;;47.22;16.02;;;;;;;7.46;84.02;99680.56;8791859;33;20226;-72
2021/01/28 02:24:50;;;;;;;45.30;13.52;;;;;;;7.49;83.66;99670.59;8792989;33;20516;-71
2021/01/28 02:29:53;;;;;;;47.70;16.85;;;;;;;7.66;83.62;99658.00;8793417;33;21776;-71
2021/01/28 02:34:56;;;;;;;28.08;9.32;;;;;;;7.35;84.20;99658.22;8796616;33;20223;-71
2021/01/28 02:39:59;;;;;;;47.03;16.30;;;;;;;7.48;83.68;99644.09;8796655;33;20735;-72
2021/01/28 02:45:35;;;;;;;50.38;15.88;;;;;;;7.51;83.97;99646.56;8797683;33;20377;-72
2021/01/28 02:50:37;;;;;;;42.75;16.15;;;;;;;7.76;83.30;99646.66;8797719;33;20430;-72
2021/01/28 02:55:41;;;;;;;45.83;15.57;;;;;;;7.82;82.98;99650.72;8797091;33;20645;-73
2021/01/28 03:00:44;;;;;;;51.38;15.65;;;;;;;7.73;83.02;99651.31;8796236;33;20631;-72
2021/01/28 03:05:50;;;;;;;38.20;14.20;;;;;;;7.63;83.30;99651.06;8796641;33;20365;-73
2021/01/28 03:10:54;;;;;;;28.58;9.98;;;;;;;7.62;83.15;99637.88;8772876;33;20227;-72
2021/01/28 03:16:00;;;;;;;29.43;9.20;;;;;;;7.52;83.41;99638.50;8795811;33;20636;-72
2021/01/28 03:21:05;;;;;;;23.35;8.15;;;;;;;7.66;83.06;99636.72;8796511;33;20259;-72
2021/01/28 03:26:28;;;;;;;22.00;7.78;;;;;;;7.63;83.10;99636.94;8781091;33;20953;-72
2021/01/28 03:31:32;;;;;;;23.50;7.72;;;;;;;7.58;82.86;99637.22;8795730;33;20751;-72
2021/01/28 03:36:35;;;;;;;18.60;7.60;;;;;;;7.59;83.10;99630.94;8795379;33;20288;-72
2021/01/28 03:41:42;;;;;;;17.23;7.32;;;;;;;7.66;83.15;99620.78;8794816;33;20234;-72
2021/01/28 03:46:46;;;;;;;19.20;7.57;;;;;;;7.67;82.94;99612.69;8796500;33;20231;-72
2021/01/28 03:51:50;;;;;;;21.50;7.95;;;;;;;7.67;82.89;99603.88;8795129;33;20229;-71
2021/01/28 03:57:20;;;;;;;21.80;7.38;;;;;;;7.68;83.09;99605.56;8794531;33;20266;-71
2021/01/28 04:02:46;;;;;;;21.60;7.95;;;;;;;7.61;83.01;99621.06;8794903;33;20255;-72
2021/01/28 04:08:12;;;;;;;20.95;7.63;;;;;;;7.53;83.09;99616.25;8795652;33;20337;-70
2021/01/28 04:13:31;;;;;;;21.80;7.60;;;;;;;7.58;83.18;99602.69;8796518;33;21457;-71
2021/01/28 04:18:34;;;;;;;18.45;7.65;;;;;;;7.60;83.08;99579.50;8794322;33;20231;-70
2021/01/28 04:23:57;;;;;;;16.23;6.90;;;;;;;7.63;83.11;99586.44;8795446;33;20762;-71
2021/01/28 04:29:18;;;;;;;16.45;6.95;;;;;;;7.59;84.52;99575.13;8795401;33;21973;-71
2021/01/28 04:34:36;;;;;;;12.53;5.90;;;;;;;7.56;83.09;99573.53;8794223;33;20359;-70
2021/01/28 04:39:51;;;;;;;12.52;6.20;;;;;;;7.56;83.10;99575.34;8793845;33;20633;-70
2021/01/28 04:44:55;;;;;;;12.50;5.72;;;;;;;7.55;83.04;99560.34;8793700;33;20231;-71
2021/01/28 04:50:06;;;;;;;15.07;5.75;;;;;;;7.52;83.07;99549.94;8794085;33;20281;-70
2021/01/28 04:55:38;;;;;;;13.90;5.60;;;;;;;7.47;83.00;99544.91;8793643;33;20457;-71
2021/01/28 05:00:41;;;;;;;8.20;4.15;;;;;;;7.47;83.16;99541.41;8795320;33;20573;-71
2021/01/28 05:05:58;;;;;;;5.95;3.40;;;;;;;7.44;83.11;99550.44;8792859;33;20812;-71
2021/01/28 05:11:26;;;;;;;7.63;3.88;;;;;;;7.41;83.15;99534.72;8794314;33;21913;-70
2021/01/28 05:16:50;;;;;;;8.48;4.03;;;;;;;7.41;83.12;99529.41;8794321;33;20226;-70
2021/01/28 05:22:18;;;;;;;7.63;3.83;;;;;;;7.45;83.10;99538.84;8794783;33;20743;-71
2021/01/28 05:27:37;;;;;;;8.20;3.60;;;;;;;7.44;83.08;99542.47;8792829;33;20884;-70
2021/01/28 05:32:47;;;;;;;9.35;3.55;;;;;;;7.39;83.06;99527.78;8793106;33;20257;-70
2021/01/28 05:38:13;;;;;;;9.88;4.57;;;;;;;7.37;83.03;99516.41;8793390;33;21144;-71
2021/01/28 05:43:32;;;;;;;5.22;2.75;;;;;;;7.26;82.87;99503.84;8792420;33;20710;-71
2021/01/28 05:48:43;;;;;;;7.43;3.47;;;;;;;7.20;83.07;99493.63;8792497;33;20230;-71
2021/01/28 05:54:08;;;;;;;8.02;3.28;;;;;;;7.18;83.05;99479.59;8793421;33;20550;-71
2021/01/28 05:59:48;;;;;;;10.52;3.90;;;;;;;7.17;82.98;99461.97;8792818;33;20626;-71
2021/01/28 06:05:09;;;;;;;7.35;4.72;;;;;;;7.11;83.03;99455.25;8793744;33;20250;-70
2021/01/28 06:11:00;;;;;;;6.80;4.72;;;;;;;7.10;83.05;99448.22;8798786;33;20936;-70
2021/01/28 06:16:20;;;;;;;7.78;4.45;;;;;;;7.07;82.90;99417.41;8797308;33;20535;-70
2021/01/28 06:21:59;;;;;;;4.60;3.20;;;;;;;7.00;82.96;99407.34;8797487;33;21185;-70
2021/01/28 06:27:46;;;;;;;6.70;3.57;;;;;;;7.00;82.90;99413.50;8789388;33;20561;-70
2021/01/28 06:33:34;;;;;;;8.77;4.22;;;;;;;7.01;83.03;99398.41;8798322;33;20270;-70
2021/01/28 06:39:21;;;;;;;8.57;4.70;;;;;;;6.96;83.02;99405.81;8745563;33;20239;-70
2021/01/28 06:44:52;;;;;;;8.95;4.88;;;;;;;6.94;83.12;99408.59;8797818;33;20321;-71
2021/01/28 06:50:25;;;;;;;13.13;5.30;;;;;;;6.98;83.12;99401.28;8795957;33;20756;-70
2021/01/28 06:55:39;;;;;;;9.68;5.32;;;;;;;6.99;83.06;99392.34;8796842;33;20226;-70
2021/01/28 07:01:14;;;;;;;9.27;4.63;;;;;;;6.94;83.12;99378.50;8772082;33;20399;-70
2021/01/28 07:06:26;;;;;;;10.03;4.70;;;;;;;6.92;83.06;99375.97;8796393;33;20230;-70
2021/01/28 07:11:36;;;;;;;9.57;4.18;;;;;;;6.92;83.11;99378.63;8796339;33;20223;-70
2021/01/28 07:17:04;;;;;;;13.38;6.20;;;;;;;6.95;83.21;99366.97;8796745;33;20231;-70
2021/01/28 07:22:27;;;;;;;10.75;4.82;;;;;;;6.90;83.07;99354.00;8768828;33;20243;-70
2021/01/28 07:27:58;;;;;;;15.23;6.37;;;;;;;6.88;83.04;99350.56;8761106;33;20444;-70
2021/01/28 07:33:02;;;;;;;17.40;6.53;;;;;;;6.85;83.01;99345.47;8738753;33;20327;-70
2021/01/28 07:38:53;;;;;;;19.73;7.43;;;;;;;6.87;82.99;99335.63;8737102;33;20736;-70
2021/01/28 07:44:47;;;;;;;15.87;6.40;;;;;;;6.90;83.23;99330.09;8727988;33;20223;-70
2021/01/28 07:50:41;;;;;;;18.83;9.07;;;;;;;6.90;83.02;99330.94;8736490;33;20414;-70
2021/01/28 07:55:45;;;;;;;14.85;7.70;;;;;;;6.90;82.81;99336.25;8764464;33;20697;-70
2021/01/28 08:00:50;;;;;;;19.70;7.43;;;;;;;6.92;83.06;99333.50;8737918;33;20365;-70
2021/01/28 08:05:57;;;;;;;15.25;7.60;;;;;;;6.92;83.17;99328.19;8737726;33;20267;-71
2021/01/28 08:11:18;;;;;;;21.33;6.82;;;;;;;6.96;83.17;99312.88;8738394;33;20228;-70
2021/01/28 08:16:22;;;;;;;18.50;7.22;;;;;;;6.96;83.15;99308.41;8738023;33;20234;-70
2021/01/28 08:21:27;;;;;;;14.90;6.30;;;;;;;6.96;83.06;99291.63;8737935;33;20224;-71
2021/01/28 08:26:33;;;;;;;16.73;6.50;;;;;;;7.09;83.36;99309.28;8778362;33;20629;-70
2021/01/28 08:31:39;;;;;;;30.95;10.57;;;;;;;7.20;83.27;99286.44;8792564;33;20298;-72
2021/01/28 08:36:49;;;;;;;31.20;10.13;;;;;;;7.27;83.16;99283.25;8792548;33;20247;-70
2021/01/28 08:42:02;;;;;;;29.45;10.68;;;;;;;7.30;83.32;99267.09;8793880;33;20329;-70
2021/01/28 08:47:10;;;;;;;28.88;11.27;;;;;;;7.35;83.10;99245.50;8794367;33;20230;-70
2021/01/28 08:52:17;;;;;;;30.98;11.13;;;;;;;7.38;83.06;99241.75;8795426;33;20337;-70
2021/01/28 08:57:23;;;;;;;19.95;7.93;;;;;;;7.29;83.13;99232.63;8794394;33;21499;-71
2021/01/28 09:02:30;;;;;;;13.93;6.57;;;;;;;7.26;83.02;99212.44;8794298;33;20628;-70
2021/01/28 09:07:51;;;;;;;13.13;6.40;;;;;;;7.27;83.13;99210.66;8782862;33;20227;-70
2021/01/28 09:12:53;;;;;;;11.02;5.40;;;;;;;7.38;83.14;99204.56;8794946;33;20226;-70
2021/01/28 09:18:05;;;;;;;11.98;6.13;;;;;;;7.33;83.08;99197.78;8794160;33;20254;-71
2021/01/28 09:23:12;;;;;;;10.38;4.95;;;;;;;7.16;82.37;99190.19;8792640;33;20633;-71
2021/01/28 09:28:23;;;;;;;9.57;4.82;;;;;;;7.08;82.51;99195.19;8781249;33;21659;-71
2021/01/28 09:33:33;;;;;;;9.02;4.68;;;;;;;7.05;82.68;99184.78;8794074;33;20380;-71
2021/01/28 09:38:38;;;;;;;12.88;5.70;;;;;;;7.02;82.52;99177.03;8792846;33;20499;-70
2021/01/28 09:43:41;;;;;;;15.93;7.30;;;;;;;6.99;82.66;99175.44;8793092;33;20231;-70
2021/01/28 09:48:45;;;;;;;20.85;8.38;;;;;;;6.92;82.69;99170.69;8775599;33;20310;-70
2021/01/28 09:54:15;;;;;;;19.38;8.48;;;;;;;6.88;82.48;99156.75;8762267;33;20227;-71
2021/01/28 09:59:18;;;;;;;18.05;8.50;;;;;;;6.92;82.54;99163.56;8764981;33;20223;-71
2021/01/28 10:04:21;;;;;;;17.75;7.68;;;;;;;6.88;82.73;99167.38;8757242;33;20259;-71
2021/01/28 10:09:24;;;;;;;18.87;7.73;;;;;;;6.84;82.81;99153.47;8734937;33;21610;-71
2021/01/28 10:14:27;;;;;;;20.50;7.82;;;;;;;6.77;82.52;99146.91;8732928;33;20263;-70
2021/01/28 10:19:29;;;;;;;13.52;7.40;;;;;;;6.69;82.64;99149.25;8733975;33;20224;-70
2021/01/28 10:24:33;;;;;;;30.17;11.40;;;;;;;6.64;82.91;99136.31;8733623;33;20769;-71
2021/01/28 10:29:35;;;;;;;16.70;6.90;;;;;;;6.68;83.21;99131.63;8756181;33;20290;-70
2021/01/28 10:34:38;;;;;;;17.00;6.50;;;;;;;6.70;82.76;99124.44;8760852;33;20540;-70
2021/01/28 10:39:41;;;;;;;15.50;6.63;;;;;;;6.73;82.97;99118.06;8763914;33;20228;-71
2021/01/28 10:44:43;;;;;;;14.33;6.80;;;;;;;6.70;82.76;99103.19;8783241;33;20315;-70
2021/01/28 10:49:56;;;;;;;13.68;7.20;;;;;;;6.68;82.88;99097.13;8752876;33;20235;-70
2021/01/28 10:54:59;;;;;;;27.50;10.33;;;;;;;6.70;83.05;99089.91;8760516;33;20346;-70
2021/01/28 11:00:04;;;;;;;16.80;7.57;;;;;;;6.66;82.78;99084.00;8738692;33;20251;-71
2021/01/28 11:05:08;;;;;;;15.63;6.77;;;;;;;6.62;82.45;99074.53;8771573;33;20743;-71
2021/01/28 11:10:14;;;;;;;18.63;7.20;;;;;;;6.56;82.89;99067.03;8776933;33;20729;-71
2021/01/28 11:15:33;;;;;;;14.57;6.20;;;;;;;6.72;82.79;99060.59;8768170;33;20250;-70
2021/01/28 11:20:37;;;;;;;15.00;5.87;;;;;;;6.63;82.90;99052.34;8788349;33;20227;-71
2021/01/28 11:25:41;;;;;;;16.77;7.50;;;;;;;6.67;83.61;99051.19;8766773;33;20234;-71
2021/01/28 11:30:43;;;;;;;15.63;6.57;;;;;;;6.88;82.62;99048.78;8764516;33;20558;-71
2021/01/28 11:35:46;;;;;;;15.33;6.70;;;;;;;6.95;82.34;99038.56;8787939;33;20235;-70
2021/01/28 11:40:50;;;;;;;26.77;11.43;;;;;;;6.95;82.46;99033.25;8795871;33;20289;-71
2021/01/28 11:45:52;;;;;;;12.87;6.60;;;;;;;6.92;82.12;99024.66;8795538;33;20314;-71
2021/01/28 11:51:03;;;;;;;14.57;6.27;;;;;;;6.90;81.84;99017.63;8790223;33;20219;-71
2021/01/28 11:56:08;;;;;;;13.50;6.73;;;;;;;6.94;82.12;99014.75;8787815;33;20321;-71
2021/01/28 12:01:13;;;;;;;14.33;5.53;;;;;;;6.66;82.70;99014.13;8794231;33;20665;-71
2021/01/28 12:06:16;;;;;;;9.70;4.93;;;;;;;6.59;82.71;99004.94;8775926;33;20284;-70
2021/01/28 12:11:19;;;;;;;6.83;3.90;;;;;;;6.46;82.83;99002.28;8770081;33;20326;-70
2021/01/28 12:16:25;;;;;;;10.80;4.00;;;;;;;6.46;82.80;99000.50;8762674;33;20699;-71
2021/01/28 12:21:29;;;;;;;8.30;3.67;;;;;;;6.37;82.54;98995.00;8766364;33;20218;-70
2021/01/28 12:26:34;;;;;;;5.03;2.67;;;;;;;6.30;82.63;98983.13;8760487;33;20318;-70
2021/01/28 12:31:36;;;;;;;5.67;2.87;;;;;;;6.23;82.56;98988.88;8774575;33;20288;-70
2021/01/28 12:36:39;;;;;;;5.43;3.10;;;;;;;6.33;82.95;98996.16;8710250;33;20281;-70
2021/01/28 12:41:43;;;;;;;6.70;3.13;;;;;;;6.45;82.48;98992.66;8764162;33;20238;-70
2021/01/28 12:46:47;;;;;;;5.78;3.67;;;;;;;6.41;82.78;98978.75;8752038;33;20247;-71
2021/01/28 12:51:53;;;;;;;9.30;3.97;;;;;;;6.41;82.19;98983.22;8793580;33;20230;-70
2021/01/28 12:56:57;;;;;;;7.83;4.23;;;;;;;6.34;82.53;98977.50;8737116;33;21427;-70
2021/01/28 13:01:59;;;;;;;8.33;3.90;;;;;;;6.20;82.22;98985.59;8735671;33;20259;-70
2021/01/28 13:07:02;;;;;;;7.55;4.60;;;;;;;6.34;83.00;98982.81;8735339;33;20231;-71
2021/01/28 13:12:06;;;;;;;6.32;3.50;;;;;;;6.21;82.09;98982.00;8737503;33;20247;-71
2021/01/28 13:17:09;;;;;;;6.30;3.90;;;;;;;6.11;82.12;98989.72;8735816;33;20236;-70
2021/01/28 13:22:13;;;;;;;8.90;4.37;;;;;;;6.09;82.45;98982.84;8751363;33;20230;-70
2021/01/28 13:27:16;;;;;;;11.40;4.93;;;;;;;6.03;82.21;98984.13;8793190;33;20235;-70
2021/01/28 13:32:18;;;;;;;10.23;4.83;;;;;;;5.93;81.96;98980.41;8796327;33;20227;-71
2021/01/28 13:37:21;;;;;;;10.03;5.20;;;;;;;5.91;82.03;98977.84;8794671;33;20237;-71
2021/01/28 13:42:26;;;;;;;10.67;5.03;;;;;;;5.96;82.41;98966.97;8794568;33;20234;-71
2021/01/28 13:47:28;;;;;;;8.23;4.57;;;;;;;5.97;82.24;98972.16;8794029;33;20284;-71
2021/01/28 13:52:30;;;;;;;10.80;4.20;;;;;;;5.87;82.25;98970.22;8794370;33;20223;-71
2021/01/28 13:57:34;;;;;;;10.20;5.10;;;;;;;5.76;82.04;98961.25;8779518;33;20285;-70
2021/01/28 14:02:36;;;;;;;9.80;5.17;;;;;;;5.66;81.93;98960.16;8772278;33;20226;-72
2021/01/28 14:07:45;;;;;;;9.90;4.83;;;;;;;5.74;82.11;98957.84;8754033;33;20247;-71
2021/01/28 14:12:48;;;;;;;9.03;4.90;;;;;;;5.76;82.35;98947.16;8736179;33;20374;-71
2021/01/28 14:17:51;;;;;;;9.87;5.47;;;;;;;5.75;81.97;98963.97;8735720;33;20262;-71
2021/01/28 14:22:55;;;;;;;12.93;5.47;;;;;;;5.67;82.25;98961.84;8735307;33;20224;-71
2021/01/28 14:27:59;;;;;;;14.70;6.77;;;;;;;5.82;82.37;98977.66;8738048;33;20239;-71
2021/01/28 14:33:04;;;;;;;13.23;6.60;;;;;;;5.87;82.24;98983.47;8739565;33;20231;-71
2021/01/28 14:38:16;;;;;;;11.93;6.30;;;;;;;5.85;82.21;99003.94;8753720;33;20261;-71
2021/01/28 14:43:19;;;;;;;8.93;5.43;;;;;;;5.74;81.94;98994.09;8767350;33;20283;-72
2021/01/28 14:48:21;;;;;;;8.53;4.93;;;;;;;5.58;81.69;99023.44;8768758;33;20236;-72
2021/01/28 14:53:24;;;;;;;9.30;5.47;;;;;;;5.67;82.32;99035.19;8786358;33;20372;-71
2021/01/28 14:58:27;;;;;;;10.43;5.33;;;;;;;5.75;82.35;99039.03;8764237;33;20312;-70
2021/01/28 15:03:29;;;;;;;9.90;5.40;;;;;;;5.73;82.31;99042.72;8738921;33;20266;-71
2021/01/28 15:08:32;;;;;;;9.90;5.57;;;;;;;5.77;82.14;99055.69;8749810;33;21451;-71
2021/01/28 15:13:35;;;;;;;8.33;5.70;;;;;;;5.76;82.15;99055.78;8761229;33;20289;-71
2021/01/28 15:18:38;;;;;;;11.87;6.40;;;;;;;5.73;82.15;99043.59;8766364;33;20219;-71
2021/01/28 15:23:40;;;;;;;9.30;5.67;;;;;;;5.64;82.25;99056.63;8730000;33;20232;-71
2021/01/28 15:28:45;;;;;;;13.83;7.40;;;;;;;5.61;81.99;99062.97;8767309;33;20612;-71
2021/01/28 15:33:47;;;;;;;15.90;8.20;;;;;;;5.57;82.25;99072.09;8767174;33;20232;-71
2021/01/28 15:38:50;;;;;;;10.83;6.10;;;;;;;5.72;81.72;99075.50;8762226;33;20830;-71
2021/01/28 15:43:53;;;;;;;13.33;7.03;;;;;;;5.72;81.33;99080.78;8763137;33;20962;-71
2021/01/28 15:48:56;;;;;;;11.37;6.40;;;;;;;5.65;81.38;99085.66;8763665;33;20826;-72
2021/01/28 15:53:59;;;;;;;10.73;6.50;;;;;;;5.56;81.36;99084.47;8765899;33;20223;-71
2021/01/28 15:59:02;;;;;;;11.77;6.83;;;;;;;5.52;81.05;99087.44;8764135;33;20757;-71
2021/01/28 16:04:04;;;;;;;15.23;7.50;;;;;;;5.51;81.04;99083.06;8764605;33;20318;-71
2021/01/28 16:09:07;;;;;;;12.40;7.17;;;;;;;5.50;81.36;99095.47;8764642;33;20238;-72
2021/01/28 16:14:12;;;;;;;14.63;7.97;;;;;;;5.53;81.39;99089.13;8763896;33;20223;-72
2021/01/28 16:19:15;;;;;;;17.70;8.20;;;;;;;5.54;81.35;99098.78;8758901;33;20216;-71
2021/01/28 16:24:17;;;;;;;14.53;8.00;;;;;;;5.56;81.46;99118.06;8687987;33;20958;-71
2021/01/28 16:29:21;;;;;;;18.33;9.23;;;;;;;5.68;81.25;99146.41;8533260;33;20479;-72
2021/01/28 16:34:24;;;;;;;18.37;7.83;;;;;;;5.62;81.10;99143.28;8521018;33;20403;-72
2021/01/28 16:39:31;;;;;;;14.63;7.87;;;;;;;5.66;81.23;99135.06;8529294;33;20160;-72
2021/01/28 16:44:34;;;;;;;16.30;8.10;;;;;;;5.69;81.17;99132.19;8571148;33;20241;-72
2021/01/28 16:49:36;;;;;;;19.75;8.40;;;;;;;5.63;81.18;99137.91;8571218;33;21808;-72
2021/01/28 16:54:41;;;;;;;16.97;7.60;;;;;;;5.62;81.23;99140.66;8572926;33;21165;-72
2021/01/28 16:59:44;;;;;;;19.75;10.45;;;;;;;5.69;81.42;99158.69;8536296;33;20153;-71
2021/01/28 17:04:48;;;;;;;19.43;9.70;;;;;;;5.78;81.38;99175.78;8505922;33;20591;-71
2021/01/28 17:09:50;;;;;;;17.80;10.00;;;;;;;5.73;81.39;99184.06;8508161;33;20489;-71
2021/01/28 17:14:53;;;;;;;21.48;10.05;;;;;;;5.73;81.09;99201.72;8505480;33;20164;-71
2021/01/28 17:19:56;;;;;;;30.90;14.77;;;;;;;5.73;81.48;99207.91;8504269;33;20223;-72
2021/01/28 17:24:58;;;;;;;14.90;9.15;;;;;;;5.71;81.41;99216.91;8501659;33;20478;-71
2021/01/28 17:30:02;;;;;;;16.30;8.25;;;;;;;5.70;81.42;99225.78;8504166;33;20184;-71
2021/01/28 17:35:06;;;;;;;18.85;8.27;;;;;;;5.70;81.24;99239.03;8504622;33;21173;-72
2021/01/28 17:40:11;;;;;;;16.73;7.70;;;;;;;5.63;81.23;99232.44;8504645;33;20157;-71
2021/01/28 17:45:19;;;;;;;16.30;8.57;;;;;;;5.61;81.46;99244.94;8506693;33;20562;-74
2021/01/28 17:50:22;;;;;;;16.13;8.63;;;;;;;5.56;80.61;99248.72;8506198;33;20171;-72
2021/01/28 17:55:26;;;;;;;18.80;9.60;;;;;;;5.53;81.27;99256.88;8503908;33;20199;-72
2021/01/28 18:00:32;;;;;;;24.98;13.40;;;;;;;5.56;81.80;99277.88;8506467;33;20144;-72
2021/01/28 18:05:34;;;;;;;22.58;9.70;;;;;;;5.60;81.35;99285.66;8503682;33;20151;-72
2021/01/28 18:10:37;;;;;;;23.53;10.57;;;;;;;5.61;81.43;99259.03;8525966;33;20624;-72
2021/01/28 18:15:58;;;;;;;24.08;11.52;;;;;;;5.53;81.24;99262.16;8503506;33;20192;-72
2021/01/28 18:21:02;;;;;;;22.33;11.20;;;;;;;5.45;80.96;99227.38;8503734;33;20188;-71
2021/01/28 18:26:04;;;;;;;27.60;12.60;;;;;;;5.37;81.13;99242.91;8503207;33;20235;-71
2021/01/28 18:31:07;;;;;;;24.73;11.43;;;;;;;5.33;81.08;99244.91;8508257;33;20545;-71
2021/01/28 18:36:10;;;;;;;26.73;11.90;;;;;;;5.36;81.58;99257.09;8509849;33;20940;-72
2021/01/28 18:41:13;;;;;;;26.52;11.35;;;;;;;5.33;81.65;99274.03;8517397;33;21039;-71
2021/01/28 18:46:16;;;;;;;25.30;11.63;;;;;;;5.43;81.53;99289.34;8516343;33;20431;-71
2021/01/28 18:51:19;;;;;;;27.02;11.73;;;;;;;5.45;81.47;99280.34;8511086;33;20452;-71
2021/01/28 18:56:22;;;;;;;29.27;13.95;;;;;;;5.41;81.20;99267.41;8508080;33;20475;-72
2021/01/28 19:01:29;;;;;;;28.65;11.85;;;;;;;5.34;80.93;99262.47;8504402;33;20447;-72
2021/01/28 19:06:32;;;;;;;30.00;13.00;;;;;;;5.29;81.00;99253.13;8503005;33;21499;-71
2021/01/28 19:11:34;;;;;;;29.02;12.55;;;;;;;5.25;80.65;99265.72;8494126;33;20474;-72
2021/01/28 19:16:37;;;;;;;33.05;13.35;;;;;;;5.22;81.44;99268.56;8486008;33;20973;-72
2021/01/28 19:21:40;;;;;;;41.73;15.60;;;;;;;5.26;81.24;99270.06;8485973;33;20279;-72
2021/01/28 19:26:42;;;;;;;42.90;17.40;;;;;;;5.24;81.44;99282.56;8483150;33;20417;-72
2021/01/28 19:31:47;;;;;;;28.05;12.20;;;;;;;5.16;81.46;99258.38;8486217;33;20559;-71
2021/01/28 19:36:49;;;;;;;34.63;13.90;;;;;;;5.12;81.57;99260.31;8476922;33;20424;-71
2021/01/28 19:41:51;;;;;;;35.57;15.33;;;;;;;5.07;81.72;99264.22;8482704;33;21457;-71
2021/01/28 19:46:55;;;;;;;37.13;15.40;;;;;;;5.05;81.63;99266.97;8481865;33;21796;-72
2021/01/28 19:51:58;;;;;;;48.95;18.17;;;;;;;5.06;81.76;99271.31;8498355;33;20148;-72
2021/01/28 19:57:00;;;;;;;75.45;27.60;;;;;;;5.09;81.84;99283.50;8539298;33;20467;-70
2021/01/28 20:02:05;;;;;;;33.03;16.17;;;;;;;5.13;81.76;99283.22;8536698;33;20211;-70
2021/01/28 20:07:08;;;;;;;61.67;26.13;;;;;;;5.13;81.75;99285.88;8512881;33;20738;-71
2021/01/28 20:12:10;;;;;;;35.17;16.80;;;;;;;5.17;82.08;99296.28;8516056;33;20435;-70
2021/01/28 20:17:13;;;;;;;41.30;18.40;;;;;;;5.19;82.04;99291.75;8535789;33;20152;-70
2021/01/28 20:22:16;;;;;;;37.90;16.38;;;;;;;5.17;81.80;99281.22;8542919;33;20483;-71
2021/01/28 20:27:19;;;;;;;42.87;18.50;;;;;;;5.17;81.84;99283.88;8542494;33;20446;-71
2021/01/28 20:32:22;;;;;;;40.83;17.10;;;;;;;5.19;82.12;99287.28;8537591;33;20144;-71
2021/01/28 20:37:25;;;;;;;39.42;18.80;;;;;;;5.17;81.68;99283.03;8490373;33;21249;-72
2021/01/28 20:42:27;;;;;;;32.90;15.00;;;;;;;5.15;81.75;99266.38;8536019;33;20259;-71
2021/01/28 20:47:30;;;;;;;31.03;13.77;;;;;;;5.12;82.01;99276.22;8531508;33;20164;-71
2021/01/28 20:52:33;;;;;;;28.53;12.97;;;;;;;5.05;81.56;99274.06;8536206;33;20453;-71
2021/01/28 20:57:36;;;;;;;22.97;10.83;;;;;;;5.04;81.58;99283.78;8537179;33;20736;-70
2021/01/28 21:02:40;;;;;;;29.33;13.47;;;;;;;5.05;81.51;99280.22;8536984;33;20417;-71
2021/01/28 21:07:43;;;;;;;26.27;12.73;;;;;;;5.02;81.71;99269.81;8535934;33;20471;-71
2021/01/28 21:12:45;;;;;;;21.60;10.40;;;;;;;4.96;81.70;99267.50;8538875;33;20351;-71
2021/01/28 21:17:48;;;;;;;23.80;10.60;;;;;;;4.94;81.32;99277.38;8536253;33;20842;-71
2021/01/28 21:22:51;;;;;;;26.37;11.63;;;;;;;4.93;81.51;99251.84;8535913;33;20251;-70
2021/01/28 21:27:53;;;;;;;25.33;11.27;;;;;;;4.90;81.26;99244.94;8537693;33;20514;-71
2021/01/28 21:32:57;;;;;;;24.10;11.47;;;;;;;4.91;81.23;99248.44;8536455;33;20317;-71
2021/01/28 21:38:00;;;;;;;29.07;11.47;;;;;;;4.90;81.30;99231.69;8534622;33;21803;-71
2021/01/28 21:43:03;;;;;;;27.57;12.73;;;;;;;4.84;80.69;99218.84;8535012;33;20530;-71
2021/01/28 21:48:08;;;;;;;32.33;12.60;;;;;;;4.86;81.13;99218.78;8532866;33;20421;-71
2021/01/28 21:53:10;;;;;;;27.63;11.97;;;;;;;4.82;81.15;99226.03;8533138;33;20996;-71
2021/01/28 21:58:13;;;;;;;27.47;11.70;;;;;;;4.84;81.20;99208.25;8523656;33;20153;-71
2021/01/28 22:03:16;;;;;;;27.17;12.37;;;;;;;4.84;81.09;99202.13;8476569;33;20441;-71
2021/01/28 22:08:18;;;;;;;27.87;11.80;;;;;;;4.83;81.21;99190.69;8474470;33;20149;-70
2021/01/28 22:13:21;;;;;;;25.67;11.10;;;;;;;4.84;81.26;99197.69;8473959;33;21124;-71
2021/01/28 22:18:26;;;;;;;29.77;13.27;;;;;;;4.92;81.47;99209.59;8472958;33;20501;-71
2021/01/28 22:23:28;;;;;;;29.50;12.40;;;;;;;4.99;81.34;99203.84;8475548;33;20412;-71
2021/01/28 22:28:31;;;;;;;25.83;11.48;;;;;;;4.95;81.38;99204.94;8473399;33;20963;-71
2021/01/28 22:33:35;;;;;;;27.70;12.73;;;;;;;4.96;81.65;99193.41;8458966;33;20417;-71
2021/01/28 22:38:38;;;;;;;28.83;11.97;;;;;;;4.98;81.38;99194.16;8455499;33;20196;-71
2021/01/28 22:43:42;;;;;;;33.33;12.55;;;;;;;4.95;81.25;99196.16;8457818;33;20419;-71
2021/01/28 22:48:45;;;;;;;27.00;11.87;;;;;;;5.00;81.36;99202.03;8472388;33;20437;-71
2021/01/28 22:53:48;;;;;;;27.53;13.07;;;;;;;5.03;81.39;99194.72;8465748;33;20674;-71
2021/01/28 22:58:50;;;;;;;24.20;11.87;;;;;;;5.03;81.26;99197.38;8470814;33;20153;-71
2021/01/28 23:03:54;;;;;;;27.10;12.17;;;;;;;5.02;81.43;99187.75;8464992;33;20422;-71
2021/01/28 23:08:56;;;;;;;21.30;11.30;;;;;;;5.05;81.22;99184.06;8457334;33;20426;-71
2021/01/28 23:13:59;;;;;;;24.50;10.63;;;;;;;5.02;81.18;99179.81;8461448;33;20545;-71
2021/01/28 23:19:02;;;;;;;29.20;11.93;;;;;;;5.00;81.03;99175.56;8464563;33;20423;-71
2021/01/28 23:24:06;;;;;;;26.48;11.88;;;;;;;4.99;81.34;99157.97;8475370;33;20801;-71
2021/01/28 23:29:08;;;;;;;26.87;13.03;;;;;;;4.88;81.20;99145.41;8478819;33;21167;-71
2021/01/28 23:34:11;;;;;;;26.60;12.60;;;;;;;4.77;80.87;99134.66;8474666;33;20695;-72
2021/01/28 23:39:14;;;;;;;28.17;12.20;;;;;;;4.76;81.07;99128.50;8481282;33;21319;-71
2021/01/28 23:44:17;;;;;;;30.47;11.57;;;;;;;4.72;80.97;99103.22;8484188;33;20435;-71
2021/01/28 23:49:20;;;;;;;28.57;11.77;;;;;;;4.65;81.61;99089.50;8484463;33;20588;-72
2021/01/28 23:54:22;;;;;;;24.37;10.83;;;;;;;4.50;81.18;99092.25;8482269;33;20432;-71
2021/01/28 23:59:24;;;;;;;30.80;12.77;;;;;;;4.33;81.31;99078.28;8482055;33;20650;-72
